createdAt,value
2022-08-09T00:00:14.422Z,8.02
2022-08-09T00:03:10.898Z,6.55
2022-08-09T00:06:19.252Z,8.40
2022-08-09T00:08:37.161Z,7.40
2022-08-09T00:11:24.602Z,10.10
2022-08-09T00:13:53.282Z,6.70
2022-08-09T00:16:26.336Z,7.70
2022-08-09T00:19:09.593Z,6.53
2022-08-09T00:21:55.577Z,7.55
2022-08-09T00:24:27.490Z,7.28
2022-08-09T00:26:56.170Z,7.30
2022-08-09T00:29:39.476Z,5.45
2022-08-09T00:32:25.389Z,7.03
2022-08-09T00:34:56.277Z,8.40
2022-08-09T00:37:25.442Z,6.93
2022-08-09T00:40:12.636Z,4.88
2022-08-09T00:44:15.388Z,6.90
2022-08-09T00:45:28.716Z,8.52
2022-08-09T00:47:56.560Z,9.38
2022-08-09T00:50:24.758Z,5.95
2022-08-09T00:52:53.812Z,8.07
2022-08-09T00:56:03.268Z,10.60
2022-08-09T00:58:09.576Z,7.25
2022-08-09T01:00:43.737Z,6.82
2022-08-09T01:03:17.088Z,11.68
2022-08-09T01:05:55.222Z,7.10
2022-08-09T01:08:33.495Z,7.55
2022-08-09T01:11:08.652Z,8.68
2022-08-09T01:14:00.262Z,4.23
2022-08-09T01:16:36.994Z,9.32
2022-08-09T01:19:42.553Z,6.45
2022-08-09T01:22:54.831Z,7.25
2022-08-09T01:25:51.117Z,9.82
2022-08-09T01:28:22.551Z,6.35
2022-08-09T01:30:58.996Z,9.53
2022-08-09T01:33:34.683Z,6.97
2022-08-09T01:36:11.922Z,7.40
2022-08-09T01:38:46.661Z,5.97
2022-08-09T01:41:18.517Z,6.38
2022-08-09T01:43:55.993Z,10.35
2022-08-09T01:46:33.850Z,9.10
2022-08-09T01:49:23.977Z,8.80
2022-08-09T01:51:57.296Z,6.65
2022-08-09T01:54:32.830Z,6.75
2022-08-09T01:57:10.086Z,9.02
2022-08-09T01:59:51.830Z,11.32
2022-08-09T02:02:31.331Z,8.50
2022-08-09T02:05:15.165Z,6.50
2022-08-09T02:08:39.148Z,5.40
2022-08-09T02:10:51.154Z,7.50
2022-08-09T02:13:25.965Z,8.02
2022-08-09T02:16:07.698Z,7.13
2022-08-09T02:18:38.301Z,8.32
2022-08-09T02:21:21.862Z,8.80
2022-08-09T02:23:54.794Z,9.80
2022-08-09T02:26:27.464Z,8.63
2022-08-09T02:28:59.907Z,7.70
2022-08-09T02:31:35.441Z,8.32
2022-08-09T02:34:13.339Z,7.60
2022-08-09T02:36:46.665Z,13.20
2022-08-09T02:39:33.372Z,9.02
2022-08-09T02:42:16.789Z,10.85
2022-08-09T02:44:52.841Z,6.28
2022-08-09T02:47:23.430Z,14.02
2022-08-09T02:50:02.062Z,9.32
2022-08-09T02:52:38.456Z,7.28
2022-08-09T02:55:19.857Z,10.30
2022-08-09T02:58:00.762Z,8.32
2022-08-09T03:00:57.626Z,7.70
2022-08-09T03:04:05.757Z,11.73
2022-08-09T03:06:17.451Z,6.65
2022-08-09T03:08:46.572Z,6.93
2022-08-09T03:12:04.610Z,7.10
2022-08-09T03:14:06.474Z,7.93
2022-08-09T03:16:41.671Z,8.88
2022-08-09T03:19:14.585Z,9.27
2022-08-09T03:22:03.151Z,8.02
2022-08-09T03:24:42.764Z,7.68
2022-08-09T03:27:21.526Z,9.88
2022-08-09T03:30:00.998Z,7.47
2022-08-09T03:32:34.779Z,7.75
2022-08-09T03:35:15.116Z,7.22
2022-08-09T03:37:55.916Z,7.43
2022-08-09T03:40:30.855Z,11.30
2022-08-09T03:42:58.737Z,9.95
2022-08-09T03:46:04.251Z,7.95
2022-08-09T03:48:19.097Z,9.25
2022-08-09T03:50:59.745Z,7.63
2022-08-09T03:53:32.348Z,9.10
2022-08-09T03:56:05.679Z,8.35
2022-08-09T03:58:33.582Z,8.27
2022-08-09T04:01:02.470Z,6.35
2022-08-09T04:03:46.467Z,8.60
2022-08-09T04:06:19.074Z,10.40
2022-08-09T04:08:48.253Z,10.63
2022-08-09T04:11:21.250Z,10.00
2022-08-09T04:14:53.016Z,9.05
2022-08-09T04:16:40.012Z,7.93
2022-08-09T04:19:11.115Z,10.23
2022-08-09T04:21:45.265Z,9.98
2022-08-09T04:24:15.041Z,7.82
2022-08-09T04:26:42.580Z,8.95
2022-08-09T04:29:14.827Z,6.93
2022-08-09T04:31:47.352Z,7.55
2022-08-09T04:34:18.838Z,11.50
2022-08-09T04:36:50.287Z,9.93
2022-08-09T04:39:18.240Z,8.63
2022-08-09T04:41:46.425Z,6.53
2022-08-09T04:44:14.759Z,6.13
2022-08-09T04:46:59.544Z,10.82
2022-08-09T04:52:27.035Z,10.45
2022-08-09T04:54:56.066Z,12.38
2022-08-09T04:57:25.232Z,10.80
2022-08-09T04:59:55.337Z,8.50
2022-08-09T05:02:27.116Z,10.45
2022-08-09T05:04:56.185Z,12.05
2022-08-09T05:07:25.074Z,12.30
2022-08-09T05:09:57.691Z,7.47
2022-08-09T05:12:29.892Z,10.57
2022-08-09T05:14:58.709Z,14.52
2022-08-09T05:18:39.766Z,8.40
2022-08-09T05:20:13.771Z,9.10
2022-08-09T05:23:53.988Z,18.13
2022-08-09T05:25:32.519Z,11.57
2022-08-09T05:28:00.211Z,15.23
2022-08-09T05:30:30.146Z,10.75
2022-08-09T05:33:00.715Z,11.43
2022-08-09T05:35:30.352Z,11.68
2022-08-09T05:38:06.586Z,13.23
2022-08-09T05:40:35.700Z,15.60
2022-08-09T05:43:04.584Z,18.30
2022-08-09T05:45:43.618Z,15.15
2022-08-09T05:48:19.601Z,14.30
2022-08-09T05:51:30.270Z,12.77
2022-08-09T05:53:56.785Z,11.77
2022-08-09T05:56:28.093Z,13.82
2022-08-09T05:58:58.475Z,14.38
2022-08-09T06:01:33.984Z,14.07
2022-08-09T06:04:12.123Z,17.30
2022-08-09T06:06:45.165Z,16.15
2022-08-09T06:09:53.825Z,13.23
2022-08-09T06:12:06.936Z,16.02
2022-08-09T06:14:35.489Z,18.45
2022-08-09T06:17:09.184Z,12.23
2022-08-09T06:19:37.673Z,15.55
2022-08-09T06:22:06.759Z,15.57
2022-08-09T06:24:42.854Z,16.67
2022-08-09T06:27:10.309Z,12.52
2022-08-09T06:29:47.673Z,20.75
2022-08-09T06:32:59.557Z,15.10
2022-08-09T06:35:13.318Z,19.08
2022-08-09T06:37:52.871Z,12.60
2022-08-09T06:40:28.767Z,16.70
2022-08-09T06:42:58.025Z,13.90
2022-08-09T06:46:07.249Z,14.43
2022-08-09T06:48:16.398Z,15.65
2022-08-09T06:50:44.767Z,10.70
2022-08-09T06:53:13.748Z,12.32
2022-08-09T06:55:41.709Z,9.70
2022-08-09T07:00:49.027Z,10.32
2022-08-09T07:01:03.441Z,12.80
2022-08-09T07:03:39.334Z,10.73
2022-08-09T07:06:07.758Z,8.30
2022-08-09T07:08:37.243Z,7.13
2022-08-09T07:11:07.999Z,6.85
2022-08-09T07:13:45.045Z,7.75
2022-08-09T07:16:39.439Z,8.18
2022-08-09T07:19:15.419Z,6.60
2022-08-09T07:21:55.890Z,4.95
2022-08-09T07:24:32.861Z,9.02
2022-08-09T07:27:26.485Z,5.75
2022-08-09T07:29:59.868Z,8.52
2022-08-09T07:32:32.589Z,10.93
2022-08-09T07:35:10.794Z,16.33
2022-08-09T07:37:45.649Z,19.25
2022-08-09T07:40:17.468Z,27.48
2022-08-09T07:42:56.150Z,14.15
2022-08-09T07:45:39.244Z,15.50
2022-08-09T07:48:25.383Z,16.85
2022-08-09T07:51:09.328Z,11.68
2022-08-09T07:54:06.607Z,13.95
2022-08-09T07:56:39.031Z,9.82
2022-08-09T07:59:34.599Z,13.35
2022-08-09T08:02:04.812Z,11.38
2022-08-09T08:04:34.187Z,14.23
2022-08-09T08:07:15.198Z,14.65
2022-08-09T08:10:08.348Z,11.45
2022-08-09T08:12:43.647Z,7.90
2022-08-09T08:15:24.358Z,16.08
2022-08-09T08:17:58.022Z,9.23
2022-08-09T08:20:30.408Z,9.63
2022-08-09T08:23:06.706Z,10.82
2022-08-09T08:25:48.287Z,10.15
2022-08-09T08:28:18.137Z,9.38
2022-08-09T08:30:53.949Z,4.93
2022-08-09T08:33:24.098Z,5.05
2022-08-09T08:35:59.642Z,6.88
2022-08-09T08:38:29.411Z,7.30
2022-08-09T08:40:57.958Z,6.47
2022-08-09T08:43:27.870Z,6.75
2022-08-09T08:46:09.872Z,6.78
2022-08-09T08:48:53.609Z,4.78
2022-08-09T08:51:23.186Z,6.05
2022-08-09T08:54:03.515Z,9.45
2022-08-09T08:56:39.882Z,4.93
2022-08-09T08:59:19.251Z,6.00
2022-08-09T09:01:52.931Z,5.05
2022-08-09T09:04:41.171Z,4.93
2022-08-09T09:07:15.811Z,6.45
2022-08-09T09:10:02.238Z,6.60
2022-08-09T09:12:35.630Z,9.15
2022-08-09T09:15:06.420Z,5.18
2022-08-09T09:17:49.243Z,4.30
2022-08-09T09:20:21.380Z,7.45
2022-08-09T09:22:57.310Z,6.35
2022-08-09T09:26:03.773Z,4.47
2022-08-09T09:29:02.112Z,5.35
2022-08-09T09:32:03.861Z,4.75
2022-08-09T09:34:14.486Z,3.17
2022-08-09T09:36:50.940Z,8.05
2022-08-09T09:39:25.753Z,5.20
2022-08-09T09:42:24.420Z,6.28
2022-08-09T09:45:03.371Z,3.80
2022-08-09T09:47:32.540Z,7.88
2022-08-09T09:50:14.731Z,9.68
2022-08-09T09:52:54.425Z,6.13
2022-08-09T09:55:31.396Z,7.82
2022-08-09T09:58:16.188Z,7.88
2022-08-09T10:00:58.905Z,10.27
2022-08-09T10:03:43.588Z,7.13
2022-08-09T10:06:12.991Z,5.67
2022-08-09T10:08:54.936Z,4.60
2022-08-09T10:12:00.527Z,8.13
2022-08-09T10:14:33.165Z,6.25
2022-08-09T10:17:40.407Z,4.15
2022-08-09T10:20:00.446Z,17.02
2022-08-09T10:22:48.197Z,6.22
2022-08-09T10:25:15.732Z,5.32
2022-08-09T10:27:55.891Z,6.43
2022-08-09T10:33:29.950Z,3.50
2022-08-09T10:36:09.657Z,6.55
2022-08-09T10:38:56.070Z,7.10
2022-08-09T10:44:01.035Z,8.20
2022-08-09T10:46:57.200Z,5.10
2022-08-09T10:49:51.366Z,4.63
2022-08-09T10:52:44.764Z,6.47
2022-08-09T10:55:26.725Z,5.30
2022-08-09T10:58:00.451Z,6.90
2022-08-09T11:00:31.344Z,4.20
2022-08-09T11:03:14.102Z,3.15
2022-08-09T11:06:26.223Z,3.95
2022-08-09T11:08:54.176Z,5.90
2022-08-09T11:11:24.449Z,5.03
2022-08-09T11:14:31.812Z,2.63
2022-08-09T11:17:00.151Z,3.80
2022-08-09T11:20:10.081Z,4.55
2022-08-09T11:22:55.589Z,4.65
2022-08-09T11:25:44.575Z,2.90
2022-08-09T11:28:34.684Z,5.65
2022-08-09T11:31:48.683Z,5.13
2022-08-09T11:34:21.942Z,3.85
2022-08-09T11:36:50.578Z,4.45
2022-08-09T11:39:18.964Z,4.03
2022-08-09T11:41:48.883Z,6.03
2022-08-09T11:44:16.521Z,6.25
2022-08-09T11:46:57.199Z,9.57
2022-08-09T11:50:55.786Z,17.65
2022-08-09T11:53:16.425Z,10.95
2022-08-09T11:55:53.878Z,5.22
2022-08-09T11:58:33.147Z,6.87
2022-08-09T12:01:08.757Z,5.50
2022-08-09T12:03:57.272Z,4.22
2022-08-09T12:06:31.987Z,2.15
2022-08-09T12:09:03.625Z,6.80
2022-08-09T12:11:37.845Z,7.07
2022-08-09T12:14:36.747Z,4.22
2022-08-09T12:17:27.877Z,3.42
2022-08-09T12:20:03.786Z,5.38
2022-08-09T12:22:32.022Z,5.70
2022-08-09T12:25:14.929Z,3.53
2022-08-09T12:28:58.185Z,10.50
2022-08-09T12:30:35.343Z,7.53
2022-08-09T12:33:07.313Z,6.65
2022-08-09T12:35:40.121Z,6.72
2022-08-09T12:38:37.886Z,10.57
2022-08-09T12:41:07.205Z,9.00
2022-08-09T12:44:05.930Z,4.80
2022-08-09T12:46:25.384Z,7.68
2022-08-09T12:48:55.438Z,4.03
2022-08-09T12:51:52.828Z,5.72
2022-08-09T12:54:14.093Z,4.63
2022-08-09T12:56:50.965Z,7.38
2022-08-09T12:59:21.733Z,4.68
2022-08-09T13:02:09.895Z,5.13
2022-08-09T13:04:38.927Z,5.45
2022-08-09T13:07:19.334Z,7.47
2022-08-09T13:10:01.212Z,6.43
2022-08-09T13:12:29.575Z,8.15
2022-08-09T13:15:09.058Z,11.80
2022-08-09T13:18:03.319Z,4.07
2022-08-09T13:20:37.372Z,6.90
2022-08-09T13:24:16.028Z,6.65
2022-08-09T13:26:06.691Z,5.03
2022-08-09T13:28:39.771Z,5.35
2022-08-09T13:32:20.168Z,6.00
2022-08-09T13:33:59.931Z,4.32
2022-08-09T13:36:40.440Z,6.32
2022-08-09T13:41:17.423Z,3.33
2022-08-09T13:42:12.773Z,5.78
2022-08-09T13:44:42.844Z,3.92
2022-08-09T13:47:26.412Z,6.60
2022-08-09T13:50:01.808Z,4.43
2022-08-09T13:52:30.799Z,7.35
2022-08-09T13:54:59.287Z,8.40
2022-08-09T13:57:36.555Z,4.10
2022-08-09T14:00:15.834Z,10.57
2022-08-09T14:03:04.297Z,6.90
2022-08-09T14:05:56.892Z,2.20
2022-08-09T14:08:22.315Z,5.28
2022-08-09T14:10:52.968Z,5.72
2022-08-09T14:14:14.818Z,2.95
2022-08-09T14:16:14.063Z,11.52
2022-08-09T14:18:49.656Z,5.07
2022-08-09T14:21:23.384Z,3.47
2022-08-09T14:23:56.251Z,3.22
2022-08-09T14:26:32.890Z,5.47
2022-08-09T14:29:07.918Z,5.45
2022-08-09T14:31:54.527Z,4.75
2022-08-09T14:34:31.423Z,3.47
2022-08-09T14:37:02.852Z,5.93
2022-08-09T14:39:45.620Z,2.40
2022-08-09T14:42:40.650Z,6.57
2022-08-09T14:46:39.361Z,6.15
2022-08-09T14:48:00.194Z,2.33
2022-08-09T14:50:32.442Z,3.92
2022-08-09T14:53:01.950Z,9.15
2022-08-09T14:55:32.527Z,4.28
2022-08-09T14:58:02.971Z,3.08
2022-08-09T15:00:34.179Z,2.67
2022-08-09T15:03:08.085Z,2.33
2022-08-09T15:05:37.405Z,4.80
2022-08-09T15:08:06.128Z,3.63
2022-08-09T15:10:38.380Z,4.00
2022-08-09T15:13:08.981Z,4.13
2022-08-09T15:15:39.234Z,2.08
2022-08-09T15:18:12.357Z,2.22
2022-08-09T15:21:57.232Z,4.32
2022-08-09T15:24:01.406Z,4.25
2022-08-09T15:26:28.374Z,5.60
2022-08-09T15:29:04.001Z,6.30
2022-08-09T15:31:40.755Z,6.00
2022-08-09T15:34:32.837Z,6.50
2022-08-09T15:36:58.278Z,2.90
2022-08-09T15:39:34.789Z,5.90
2022-08-09T15:42:14.996Z,6.15
2022-08-09T15:44:42.917Z,4.70
2022-08-09T15:47:14.531Z,7.90
2022-08-09T15:50:03.746Z,8.70
2022-08-09T15:52:38.134Z,8.65
2022-08-09T15:55:09.494Z,8.38
2022-08-09T15:57:44.358Z,7.80
2022-08-09T16:00:25.386Z,6.13
2022-08-09T16:02:56.217Z,8.13
2022-08-09T16:05:47.619Z,7.13
2022-08-09T16:08:29.663Z,6.68
2022-08-09T16:11:03.246Z,5.70
2022-08-09T16:14:05.334Z,5.75
2022-08-09T16:16:19.319Z,6.07
2022-08-09T16:18:47.714Z,6.07
2022-08-09T16:21:17.805Z,5.90
2022-08-09T16:23:55.729Z,6.00
2022-08-09T16:26:33.827Z,4.78
2022-08-09T16:29:11.085Z,4.20
2022-08-09T16:32:17.662Z,5.38
2022-08-09T16:34:56.060Z,6.43
2022-08-09T16:37:54.992Z,4.22
2022-08-09T16:40:11.228Z,4.63
2022-08-09T16:42:44.985Z,4.07
2022-08-09T16:45:18.619Z,5.13
2022-08-09T16:48:50.500Z,4.97
2022-08-09T16:50:38.455Z,5.32
2022-08-09T16:53:08.710Z,3.20
2022-08-09T16:55:58.254Z,3.45
2022-08-09T16:58:27.128Z,3.63
2022-08-09T17:00:55.113Z,2.80
2022-08-09T17:03:23.807Z,4.95
2022-08-09T17:06:07.239Z,4.85
2022-08-09T17:09:01.576Z,3.80
2022-08-09T17:11:40.256Z,3.95
2022-08-09T17:14:25.730Z,3.10
2022-08-09T17:17:02.855Z,3.78
2022-08-09T17:20:06.164Z,5.72
2022-08-09T17:22:24.811Z,7.65
2022-08-09T17:25:02.989Z,4.07
2022-08-09T17:27:33.587Z,5.07
2022-08-09T17:30:04.906Z,3.58
2022-08-09T17:32:37.768Z,5.38
2022-08-09T17:35:12.155Z,4.65
2022-08-09T17:38:02.763Z,4.78
2022-08-09T17:40:32.128Z,4.07
2022-08-09T17:43:10.902Z,5.05
2022-08-09T17:46:04.284Z,6.30
2022-08-09T17:48:38.506Z,4.63
2022-08-09T17:51:18.526Z,3.38
2022-08-09T17:53:54.709Z,8.77
2022-08-09T17:56:26.602Z,4.82
2022-08-09T17:58:57.659Z,5.38
2022-08-09T18:01:25.407Z,7.55
2022-08-09T18:04:08.984Z,5.70
2022-08-09T18:06:37.903Z,4.43
2022-08-09T18:09:06.580Z,3.92
2022-08-09T18:12:05.611Z,7.57
2022-08-09T18:14:27.090Z,4.88
2022-08-09T18:16:54.644Z,6.18
2022-08-09T18:20:56.018Z,5.03
2022-08-09T18:22:13.347Z,5.93
2022-08-09T18:24:47.769Z,5.40
2022-08-09T18:27:49.372Z,4.15
2022-08-09T18:30:38.265Z,4.47
2022-08-09T18:32:54.087Z,7.38
2022-08-09T18:35:59.556Z,4.78
2022-08-09T18:38:12.619Z,6.88
2022-08-09T18:40:43.047Z,3.22
2022-08-09T18:43:13.137Z,2.58
2022-08-09T18:46:50.843Z,3.78
2022-08-09T18:48:32.718Z,5.05
2022-08-09T18:51:01.321Z,3.28
2022-08-09T18:53:56.528Z,4.65
2022-08-09T18:56:20.044Z,5.20
2022-08-09T18:58:56.665Z,6.00
2022-08-09T19:01:25.891Z,3.63
2022-08-09T19:04:06.153Z,3.30
2022-08-09T19:06:38.414Z,6.30
2022-08-09T19:09:07.591Z,6.60
2022-08-09T19:11:38.686Z,6.70
2022-08-09T19:14:09.166Z,5.40
2022-08-09T19:16:37.909Z,3.78
2022-08-09T19:19:21.355Z,4.63
2022-08-09T19:22:06.642Z,5.65
2022-08-09T19:25:09.526Z,9.30
2022-08-09T19:27:28.642Z,8.63
2022-08-09T19:30:22.344Z,6.93
2022-08-09T19:32:44.845Z,3.40
2022-08-09T19:35:12.446Z,7.80
2022-08-09T19:37:54.408Z,3.00
2022-08-09T19:40:33.384Z,5.93
2022-08-09T19:43:05.351Z,7.18
2022-08-09T19:45:38.944Z,6.03
2022-08-09T19:48:10.760Z,4.35
2022-08-09T19:50:48.901Z,8.30
2022-08-09T19:53:20.656Z,6.38
2022-08-09T19:56:03.261Z,7.85
2022-08-09T19:58:34.868Z,8.00
2022-08-09T20:01:04.094Z,9.80
2022-08-09T20:04:18.360Z,8.23
2022-08-09T20:06:22.447Z,9.40
2022-08-09T20:08:56.666Z,6.93
2022-08-09T20:11:26.853Z,6.28
2022-08-09T20:13:56.112Z,8.80
2022-08-09T20:16:34.502Z,8.23
2022-08-09T20:19:49.235Z,5.47
2022-08-09T20:21:57.463Z,8.85
2022-08-09T20:24:31.776Z,9.85
2022-08-09T20:27:05.697Z,5.50
2022-08-09T20:32:29.332Z,8.07
2022-08-09T20:34:59.690Z,10.48
2022-08-09T20:38:19.096Z,10.15
2022-08-09T20:40:24.837Z,14.57
2022-08-09T20:43:12.026Z,14.60
2022-08-09T20:46:00.038Z,15.70
2022-08-09T20:48:31.251Z,13.45
2022-08-09T20:51:03.126Z,12.40
2022-08-09T20:53:37.288Z,21.23
2022-08-09T20:56:08.856Z,12.52
2022-08-09T20:58:38.014Z,11.88
2022-08-09T21:01:32.662Z,11.10
2022-08-09T21:04:07.868Z,9.60
2022-08-09T21:06:44.073Z,19.70
2022-08-09T21:09:13.876Z,12.82
2022-08-09T21:14:31.615Z,12.27
2022-08-09T21:17:00.355Z,12.18
2022-08-09T21:20:18.716Z,16.48
2022-08-09T21:22:35.716Z,14.65
2022-08-09T21:25:22.325Z,12.15
2022-08-09T21:27:53.461Z,19.60
2022-08-09T21:30:23.956Z,18.10
2022-08-09T21:32:53.181Z,14.15
2022-08-09T21:35:21.879Z,18.88
2022-08-09T21:37:58.838Z,16.13
2022-08-09T21:40:30.442Z,16.48
2022-08-09T21:42:59.724Z,13.63
2022-08-09T21:45:28.551Z,15.70
2022-08-09T21:47:58.994Z,17.88
2022-08-09T21:50:39.010Z,14.55
2022-08-09T21:53:23.824Z,16.92
2022-08-09T21:55:58.486Z,14.63
2022-08-09T21:58:29.237Z,15.43
2022-08-09T22:00:59.680Z,13.40
2022-08-09T22:03:28.179Z,12.88
2022-08-09T22:05:57.845Z,10.05
2022-08-09T22:08:26.058Z,11.55
2022-08-09T22:11:49.670Z,12.75
2022-08-09T22:13:45.749Z,11.60
2022-08-09T22:16:13.421Z,10.13
2022-08-09T22:18:53.543Z,10.70
2022-08-09T22:21:27.349Z,13.95
2022-08-09T22:24:17.087Z,12.15
2022-08-09T22:26:51.147Z,11.27
2022-08-09T22:29:24.048Z,8.85
2022-08-09T22:31:57.972Z,9.63
2022-08-09T22:34:26.833Z,7.15
2022-08-09T22:36:55.995Z,8.88
2022-08-09T22:39:57.070Z,12.15
2022-08-09T22:42:21.023Z,6.88
2022-08-09T22:45:00.376Z,8.38
2022-08-09T22:48:30.228Z,5.78
2022-08-09T22:50:32.199Z,7.45
2022-08-09T22:53:03.741Z,9.82
2022-08-09T22:56:06.500Z,7.85
2022-08-09T22:58:32.361Z,6.32
2022-08-09T23:01:03.173Z,9.40
2022-08-09T23:04:05.627Z,6.63
2022-08-09T23:06:29.865Z,6.22
2022-08-09T23:09:06.333Z,10.30
2022-08-09T23:11:34.400Z,9.02
2022-08-09T23:14:03.553Z,8.02
2022-08-09T23:16:31.922Z,8.88
2022-08-09T23:18:59.937Z,6.32
2022-08-09T23:21:33.258Z,8.25
2022-08-09T23:24:06.090Z,6.85
2022-08-09T23:26:38.709Z,8.25
2022-08-09T23:29:09.989Z,7.35
2022-08-09T23:31:37.673Z,10.50
2022-08-09T23:34:05.533Z,8.57
2022-08-09T23:36:34.788Z,11.27
2022-08-09T23:39:04.878Z,9.18
2022-08-09T23:41:32.684Z,34.97
2022-08-09T23:44:01.875Z,24.58
2022-08-09T23:46:31.319Z,15.77
2022-08-09T23:49:00.008Z,13.30
2022-08-09T23:51:28.174Z,16.65
2022-08-09T23:54:02.608Z,13.70
2022-08-09T23:56:52.323Z,18.40
2022-08-09T23:59:21.364Z,12.40
